Ober, Indiana
Current Conditions -  °F | °C
As of 3:15 PM on Tuesday 21 Oct 2014 (Local Time) from KOXI Reporting Station
Scattered Clouds Scattered Clouds  
Wind Chill: 54°   Ceiling: Unl
Heat Index: 54°   Visibility: 10mi
Dew Point: 40°   Wind: 17mph
Humidity: 59%   Direction: 350°N
Pressure: 30.13"   Gusts: NA
Location:  41.2954°N, 86.6039°W
Report Text: KOXI 212015Z AUTO 35015KT 10SM SCT039 SCT048 12/05 A3013 RMK AO1 T01230046
Loading
Personal Weather Stations






























Interactive Weather Map
Tropical Storm Tracking
New forecast layout! Learn more

10-Day Weather Forecast

Advertisements
Track Severe Weather on mobile